Flight Track Log - Related Links

Times and Time Zones

All times are in EDT time to prevent confusion due to time zone crossing. See the EJA863 flight status page for this flight to view local times or setup timezone preferences in your user account.


Time Position Orientation Groundspeed Altitude Reporting Facility
EDT Latitude Longitude Course Direction KTS MPH feet Rate Location/Type
Sat 09:22:23 AM 41.9328 -72.8177 238° Southwest  Level FlightAware Approximate
Sat 09:23:21 AM 40.8142 -75.1417 240° Southwest 394 453 28,000  Level New York Center
Sat 09:24:20 AM 40.7569 -75.2722 243° Southwest 401 461 28,000  Level New York Center
Sat 09:25:21 AM 40.7083 -75.3975 240° Southwest 401 461 28,000  Level New York Center
Sat 09:26:22 AM 40.6514 -75.5250 240° Southwest 401 461 28,000  Level New York Center
Sat 09:27:22 AM 40.5961 -75.6497 241° Southwest 401 461 28,000  Level New York Center
Sat 09:28:21 AM 40.5431 -75.7769 239° Southwest 401 461 28,000  Level New York Center
Sat 09:29:21 AM 40.4878 -75.8986 240° Southwest 401 461 28,000  Level New York Center
Sat 09:30:20 AM 40.4253 -76.0383 241° Southwest 408 470 28,000  Level New York Center
Sat 09:31:21 AM 40.3714 -76.1678 256° West 408 470 28,000  Level New York Center
Sat 09:32:19 AM 40.3442 -76.3075 254° West 395 455 28,000  Level New York Center
Sat 09:33:19 AM 40.3175 -76.4306 254° West 395 455 28,000  Level New York Center
Sat 09:34:21 AM 40.2831 -76.5828 252° West 395 455 28,000  Level New York Center
Sat 09:35:22 AM 40.2514 -76.7133 254° West 406 467 28,000  Level New York Center
Sat 09:36:19 AM 40.2217 -76.8494 254° West 406 467 28,000  Level New York Center
Sat 09:37:19 AM 40.1889 -76.9989 255° West 406 467 28,000  Level New York Center
Sat 09:38:21 AM 40.1606 -77.1378 261° West 399 459 28,000  Level New York Center
Sat 09:39:22 AM 40.1447 -77.2747 268° West 394 453 28,000  Level New York Center
Sat 09:41:44 AM 40.1347 -77.6147 268° West 394 453 28,000  Level Cleveland Center
Sat 09:42:44 AM 40.1300 -77.7564 268° West 394 453 28,000  Level Cleveland Center
Sat 09:43:44 AM 40.1253 -77.8978 265° West 394 453 28,000  Level Cleveland Center
Sat 09:44:44 AM 40.1175 -78.0228 267° West 388 447 28,000  Level Cleveland Center
Sat 09:45:44 AM 40.1122 -78.1617 266° West 388 447 28,000  Level Cleveland Center
Sat 09:46:44 AM 40.1047 -78.3031 267° West 388 447 28,000  Level Cleveland Center
Sat 09:47:44 AM 40.0992 -78.4444 267° West 388 447 28,000  Level Cleveland Center
Sat 09:48:44 AM 40.0933 -78.5856 266° West 388 447 28,000  Level Cleveland Center
Sat 09:49:44 AM 40.0853 -78.7269 267° West 388 447 28,000  Level Cleveland Center
Sat 09:50:44 AM 40.0792 -78.8683 267° West 388 447 28,000  Level Cleveland Center
Sat 09:51:44 AM 40.0731 -79.0069 267° West 388 447 28,000  Level Cleveland Center
Sat 09:52:44 AM 40.0664 -79.1508 265° West 388 447 28,000  Level Cleveland Center
Sat 09:53:44 AM 40.0578 -79.2892 269° West 388 447 28,000  Level Cleveland Center
Sat 09:54:44 AM 40.0553 -79.4467 266° West 388 447 28,000  Level Cleveland Center
Sat 09:55:44 AM 40.0483 -79.5850 265° West 388 447 28,000  Level Cleveland Center
Sat 09:56:44 AM 40.0389 -79.7261 266° West 388 447 28,000  Level Cleveland Center
Sat 09:57:44 AM 40.0317 -79.8672 266° West 388 447 28,000  Level Cleveland Center
Sat 09:58:44 AM 40.0242 -80.0111 265° West 388 447 28,000  Level Cleveland Center
Sat 09:59:44 AM 40.0164 -80.1358 265° West 388 447 28,000  Level Cleveland Center
Sat 10:00:44 AM 40.0064 -80.2822 266° West 394 453 28,000  Level Cleveland Center
Sat 10:01:44 AM 39.9983 -80.4231 265° West 394 453 28,000  Level Cleveland Center
Sat 10:02:44 AM 39.9881 -80.5669 265° West 399 459 28,000  Level Cleveland Center
Sat 10:03:44 AM 39.9794 -80.7078 265° West 399 459 28,000  Level Cleveland Center
Sat 10:05:55 AM 39.9553 -81.0356 265° West 399 459 28,000  Level Indianapolis Center
Sat 10:06:55 AM 39.9458 -81.1794 265° West 399 459 28,000  Level Indianapolis Center
Sat 10:07:55 AM 39.9361 -81.3258 263° West 399 459 28,000  Level Indianapolis Center
Sat 10:08:55 AM 39.9222 -81.4753 265° West 409 471 28,000  Level Indianapolis Center
Sat 10:09:55 AM 39.9122 -81.6300 266° West 420 483 28,000  Level Indianapolis Center
Sat 10:10:55 AM 39.9042 -81.7681 264° West 426 490 28,000  Level Indianapolis Center
Sat 10:11:55 AM 39.8917 -81.9200 265° West 426 490 28,000  Level Indianapolis Center
Sat 10:12:55 AM 39.8811 -82.0744 265° West 426 490 28,000  Level Indianapolis Center
Sat 10:13:54 AM 39.8706 -82.2261 264° West 426 490 28,000  Level Indianapolis Center
Sat 10:14:55 AM 39.8575 -82.3833 264° West 426 490 28,000  Level Indianapolis Center
Sat 10:15:55 AM 39.8444 -82.5375 264° West 431 496 28,000  Level Indianapolis Center
Sat 10:16:54 AM 39.8311 -82.7056 263° West 425 489 28,000  Level Indianapolis Center
Sat 10:17:55 AM 39.8175 -82.8597 264° West 431 496 28,000  Level Indianapolis Center
Sat 10:18:54 AM 39.8039 -83.0164 264° West 431 496 28,000  Level Indianapolis Center
Sat 10:19:55 AM 39.7919 -83.1706 262° West 431 496 28,000  Level Indianapolis Center
Sat 10:20:54 AM 39.7756 -83.3219 263° West 431 496 28,000  Level Indianapolis Center
Sat 10:21:55 AM 39.7611 -83.4786 265° West 431 496 28,000  Level Indianapolis Center
Sat 10:22:55 AM 39.7508 -83.6219 264° West 446 513 28,000  Level Indianapolis Center
Sat 10:23:54 AM 39.7381 -83.7703 263° West 434 499 28,000  Level Indianapolis Center
Sat 10:24:54 AM 39.7231 -83.9242 264° West 428 493 28,000  Level Indianapolis Center
Sat 10:25:55 AM 39.7100 -84.0914 263° West 428 493 28,000  Level Indianapolis Center
Sat 10:26:54 AM 39.6947 -84.2450 263° West 428 493 28,000  Level Indianapolis Center
Sat 10:27:55 AM 39.6811 -84.3961 262° West 428 493 28,000  Level Indianapolis Center
Sat 10:28:55 AM 39.6653 -84.5494 263° West 428 493 28,000  Level Indianapolis Center
Sat 10:29:55 AM 39.6514 -84.7031 262° West 428 493 28,000  Level Indianapolis Center
Sat 10:30:54 AM 39.6353 -84.8564 263° West 428 493 28,000  Level Indianapolis Center
Sat 10:31:55 AM 39.6208 -85.0097 262° West 428 493 28,000  Level Indianapolis Center
Sat 10:32:54 AM 39.6044 -85.1606 263° West 428 493 28,000  Level Indianapolis Center
Sat 10:33:54 AM 39.5897 -85.3136 261° West 428 493 28,000  Level Indianapolis Center
Sat 10:34:54 AM 39.5708 -85.4642 262° West 428 493 28,000  Level Indianapolis Center
Sat 10:35:54 AM 39.5536 -85.6144 263° West 427 491 28,000  Level Indianapolis Center
Sat 10:36:54 AM 39.5383 -85.7647 261° West 433 498 28,000  Level Indianapolis Center
Sat 10:37:54 AM 39.5208 -85.9150 262° West 426 490 28,000  Level Indianapolis Center
Sat 10:38:55 AM 39.5056 -86.0517 261° West 426 490 28,000  Level Indianapolis Center
Sat 10:39:54 AM 39.4878 -86.2044 262° West 426 490 28,000  Level Indianapolis Center
Sat 10:40:54 AM 39.4717 -86.3544 262° West 426 490 28,000  Level Indianapolis Center
Sat 10:41:54 AM 39.4531 -86.5178 262° West 426 490 28,000  Level Indianapolis Center
Sat 10:42:54 AM 39.4369 -86.6650 262° West 421 484 28,000  Level Indianapolis Center
Sat 10:43:54 AM 39.4203 -86.8147 260° West 426 490 28,000  Level Indianapolis Center
Sat 10:44:55 AM 39.3994 -86.9617 262° West 426 490 28,000  Level Indianapolis Center
Sat 10:45:55 AM 39.3825 -87.1086 263° West 421 484 28,000  Level Indianapolis Center
Sat 10:48:05 AM 39.3508 -87.4294 261° West 414 476 28,000  Level Kansas City Center
Sat 10:49:05 AM 39.3325 -87.5792 261° West 414 476 28,000  Level Kansas City Center
Sat 10:50:06 AM 39.3142 -87.7311 261° West 425 489 28,000  Level Kansas City Center
Sat 10:51:06 AM 39.2956 -87.8831 261° West 425 489 28,000  Level Kansas City Center
Sat 10:52:07 AM 39.2767 -88.0322 260° West 430 495 28,000  Level Kansas City Center
Sat 10:53:07 AM 39.2556 -88.1844 261° West 430 495 28,000  Level Kansas City Center
Sat 10:54:07 AM 39.2383 -88.3308 260° West 430 495 28,000  Level Kansas City Center
Sat 10:55:06 AM 39.2169 -88.4881 261° West 430 495 28,000  Level Kansas City Center
Sat 10:56:07 AM 39.1975 -88.6397 259° West 430 495 28,000  Level Kansas City Center
Sat 10:57:07 AM 39.1756 -88.7886 261° West 430 495 28,000  Level Kansas City Center
Sat 10:58:05 AM 39.1575 -88.9400 257° West 430 495 28,000  Level Kansas City Center
Sat 10:59:05 AM 39.1311 -89.0867 258° West 430 495 28,000  Level Kansas City Center
Sat 11:00:04 AM 39.1064 -89.2358 261° West 430 495 28,000  Level Kansas City Center
Sat 11:01:05 AM 39.0894 -89.3733 261° West 435 501 28,000  Level Kansas City Center
Sat 11:02:06 AM 39.0675 -89.5433 258° West 435 501 28,000  Level Kansas City Center
Sat 11:03:06 AM 39.0458 -89.6786 260° West 435 501 28,000  Level Kansas City Center
Sat 11:04:07 AM 39.0233 -89.8458 259° West 435 501 28,000  Level Kansas City Center
Sat 11:05:04 AM 39.0000 -89.9994 259° West 435 501 28,000  Level Kansas City Center
Sat 11:06:05 AM 38.9800 -90.1342 260° West 430 495 28,000  Level Kansas City Center
Sat 11:07:05 AM 38.9567 -90.3011 258° West 430 495 28,000  Level Kansas City Center
Sat 11:08:06 AM 38.9344 -90.4358 260° West 430 495 28,000  Level Kansas City Center
Sat 11:09:07 AM 38.9108 -90.6028 257° West 430 495 28,000  Level Kansas City Center
Sat 11:10:07 AM 38.8878 -90.7347 259° West 430 495 28,000  Level Kansas City Center
Sat 11:11:05 AM 38.8617 -90.9014 260° West 430 495 28,000  Level Kansas City Center
Sat 11:12:05 AM 38.8428 -91.0328 259° West 430 495 28,000  Level Kansas City Center
Sat 11:13:06 AM 38.8197 -91.1831 259° West 430 495 28,000  Level Kansas City Center
Sat 11:14:07 AM 38.7969 -91.3333 258° West 430 495 28,000  Level Kansas City Center
Sat 11:15:05 AM 38.7717 -91.4836 259° West 435 501 28,000  Level Kansas City Center
Sat 11:16:04 AM 38.7464 -91.6469 258° West 430 495 28,000  Level Kansas City Center
Sat 11:17:05 AM 38.7228 -91.7944 258° West 430 495 28,000  Level Kansas City Center
Sat 11:18:05 AM 38.6989 -91.9442 258° West 430 495 28,000  Level Kansas City Center
Sat 11:19:06 AM 38.6728 -92.0967 258° West 430 495 28,000  Level Kansas City Center
Sat 11:20:04 AM 38.6486 -92.2464 257° West 430 495 28,000  Level Kansas City Center
Sat 11:21:05 AM 38.6222 -92.3961 259° West 430 495 28,000  Level Kansas City Center
Sat 11:22:06 AM 38.6017 -92.5319 257° West 436 502 28,000  Level Kansas City Center
Sat 11:23:06 AM 38.5747 -92.6814 258° West 436 502 28,000  Level Kansas City Center
Sat 11:24:07 AM 38.5500 -92.8308 258° West 430 495 28,000  Level Kansas City Center
Sat 11:25:07 AM 38.5247 -92.9828 257° West 430 495 28,000  Level Kansas City Center
Sat 11:26:05 AM 38.4975 -93.1344 257° West 430 495 28,000  Level Kansas City Center
Sat 11:27:06 AM 38.4700 -93.2833 258° West 430 495 28,000  Level Kansas City Center
Sat 11:28:06 AM 38.4442 -93.4322 258° West 430 495 28,000  Level Kansas City Center
Sat 11:29:07 AM 38.4183 -93.5839 257° West 430 495 28,000  Level Kansas City Center
Sat 11:30:07 AM 38.3903 -93.7325 258° West 430 495 28,000  Level Kansas City Center
Sat 11:31:04 AM 38.3642 -93.8836 257° West 435 501 28,000  Level Kansas City Center
Sat 11:32:05 AM 38.3375 -94.0347 254° West 435 501 28,000  Level Kansas City Center
Sat 11:33:06 AM 38.3006 -94.1964 256° West 430 495 28,000  Level Kansas City Center
Sat 11:34:07 AM 38.2717 -94.3419 258° West 430 495 28,000  Level Kansas City Center
Sat 11:35:06 AM 38.2469 -94.4903 257° West 430 495 28,000  Level Kansas City Center
Sat 11:36:07 AM 38.2217 -94.6275 257° West 435 501 28,000  Level Kansas City Center
Sat 11:37:05 AM 38.1944 -94.7781 256° West 435 501 28,000  Level Kansas City Center
Sat 11:38:05 AM 38.1625 -94.9417 255° West 430 495 28,000  Level Kansas City Center
Sat 11:39:06 AM 38.1308 -95.0894 257° West 435 501 28,000  Level Kansas City Center
Sat 11:40:06 AM 38.1069 -95.2211 256° West 424 488 28,000  Level Kansas City Center
Sat 11:41:07 AM 38.0769 -95.3711 256° West 430 495 28,000  Level Kansas City Center
Sat 11:42:04 AM 38.0442 -95.5369 256° West 435 501 28,000 -153 Level Kansas City Center
Sat 11:43:05 AM 38.0158 -95.6817 255° West 435 501 27,700 -787 Descending Kansas City Center
Sat 11:44:06 AM 37.9875 -95.8128 256° West 425 489 26,400 -1,500 Descending Kansas City Center
Sat 11:45:05 AM 37.9586 -95.9547 256° West 425 489 24,700 -1,916 Descending Kansas City Center
Sat 11:46:05 AM 37.9319 -96.0883 256° West 413 475 22,600 -2,579 Descending Kansas City Center
Sat 11:47:06 AM 37.9028 -96.2325 259° West 402 463 19,500 -2,803 Descending Kansas City Center
Sat 11:48:07 AM 37.8819 -96.3636 252° West 392 451 16,900 -2,370 Descending Kansas City Center
Sat 11:49:05 AM 37.8531 -96.4758 253° West 386 444 14,800 -2,438 Descending Kansas City Center
Sat 11:49:11 AM 37.8486 -96.4942 255° West 376 433 14,300 -2,656 Descending Kansas City Center
Sat 11:50:06 AM 37.8261 -96.5989 255° West 374 430 12,100 -2,368 Descending Kansas City Center
Sat 11:50:27 AM 37.8169 -96.6433 260° West 299 344 11,300 -1,475 Descending Kansas City Center
Sat 11:51:07 AM 37.8097 -96.6931 248° West 329 379 10,600 -1,519 Descending Kansas City Center
Sat 11:51:46 AM 37.7853 -96.7686 253° West 279 321 9,300 -1,448 Descending Kansas City Center
Sat 11:52:05 AM 37.7808 -96.7867 247° West 292 336 9,200 -1,377 Descending Kansas City Center
Sat 11:52:47 AM 37.7564 -96.8594 250° West 276 318 7,900 -1,377 Descending Kansas City Center
Sat 11:53:06 AM 37.7519 -96.8753 248° West 281 323 7,800 -885 Descending Kansas City Center
Sat 11:53:48 AM 37.7275 -96.9506 247° West 278 320 7,000 -800 Descending Kansas City Center
Sat 11:54:06 AM 37.7231 -96.9636 249° West 281 323 7,000 -91 Level Kansas City Center
Sat 11:54:54 AM 37.7006 -97.0389 250° West 251 289 6,900 -200 Descending Kansas City Center
Sat 11:55:06 AM 37.6983 -97.0467 247° West 270 311 6,800 -980 Descending Kansas City Center
Sat 11:55:43 AM 37.6783 -97.1064 250° West 251 289 6,100 -900 Descending Kansas City Center
Sat 11:56:06 AM 37.6717 -97.1297 248° West 264 304 5,900 -857 Descending Kansas City Center
Sat 11:56:39 AM 37.6536 -97.1869 246° West 268 308 5,300 -900 Descending Kansas City Center
Sat 11:57:06 AM 37.6425 -97.2178 225° Southwest 269 310 5,000 -900 Descending Kansas City Center
Sat 11:57:39 AM 37.6039 -97.2664 231° Southwest 282 325 4,400 -900 Descending Kansas City Center
Sat 11:58:06 AM 37.5908 -97.2869 227° Southwest 274 315 4,100 -247 Descending Kansas City Center
Sat 11:58:52 AM 37.5478 -97.3456 234° Southwest 245 282 4,100 -103 Level Kansas City Center
Sat 11:59:04 AM 37.5433 -97.3533 228° Southwest 272 313 4,000 -140 Descending Kansas City Center
Sat 11:59:35 AM 37.5197 -97.3864 234° Southwest 214 246 4,000  Level Kansas City Center
Sat 12:00:06 PM 37.5067 -97.4094 282° West 241 277 4,000  Level Kansas City Center
Sat 12:00:42 PM 37.5139 -97.4517 282° West 187 215 4,000  Level Kansas City Center
Sat 12:01:06 PM 37.5175 -97.4728 316° Northwest 190 219 4,000 -500 Level Kansas City Center
Sat 12:01:42 PM 37.5397 -97.4997 North 179 206 3,500 -590 Descending Kansas City Center
Sat 12:02:07 PM 37.5544 -97.4978 32° Northeast 157 181 3,400 -492 Descending Kansas City Center
Sat 12:02:43 PM 37.5800 -97.4778 16° North 154 177 3,000 -610 Descending Kansas City Center
Sat 12:03:06 PM 37.5928 -97.4731 32° Northeast 108 124 2,800 -1,019 Descending Kansas City Center
Sat 12:03:36 PM 37.6117 -97.4581 14° North 138 159 2,100 -1,000 Descending Kansas City Center
Sat 12:04:06 PM 37.6264 -97.4533 14° North 113 130 1,800 -600 Descending Kansas City Center

Login

Don't have an account? Register now (free) for customized features, flight alerts, and more!